Time;durP1;ratioP1;P1;durP2;ratioP2;P2;SDS_P1;SDS_P2;PMS_P1;PMS_P2;Temp;Humidity;BMP_temperature;BMP_pressure;BME280_temperature;BME280_humidity;BME280_pressure;Samples;Min_cycle;Max_cycle;Signal;HPM_P1;HPM_P2
2023/03/23 00:02:25;;;;;;;;;;;7.60;99.90;;;;;;5048258;28;20178;-75
2023/03/23 00:04:52;;;;;;;10.10;5.28;;;7.60;99.90;;;;;;5030803;28;20534;-75
2023/03/23 00:07:22;;;;;;;10.85;5.50;;;7.50;99.90;;;;;;5032156;28;20025;-75
2023/03/23 00:09:53;;;;;;;14.82;6.07;;;7.50;99.90;;;;;;5032460;28;20505;-75
2023/03/23 00:12:28;;;;;;;10.95;5.55;;;7.50;99.90;;;;;;5030972;28;20029;-75
2023/03/23 00:14:55;;;;;;;15.13;6.38;;;7.50;99.90;;;;;;5030851;28;20040;-76
2023/03/23 00:17:23;;;;;;;13.07;6.90;;;7.50;99.90;;;;;;5031396;28;20698;-76
2023/03/23 00:19:49;;;;;;;15.32;8.90;;;7.50;99.90;;;;;;5030996;28;20029;-77
2023/03/23 00:22:16;;;;;;;;;;;7.40;99.90;;;;;;5031028;28;20409;-76
2023/03/23 00:24:42;;;;;;;26.98;12.73;;;7.40;99.90;;;;;;5031978;28;19909;-75
2023/03/23 00:27:08;;;;;;;22.45;9.85;;;7.40;99.90;;;;;;5031666;28;20480;-75
2023/03/23 00:29:34;;;;;;;;;;;7.30;99.90;;;;;;5032240;28;20040;-75
2023/03/23 00:32:01;;;;;;;12.55;7.53;;;7.30;99.90;;;;;;5031670;28;20425;-75
2023/03/23 00:34:32;;;;;;;13.15;7.30;;;7.30;99.90;;;;;;5030377;28;20553;-76
2023/03/23 00:36:58;;;;;;;13.20;7.40;;;7.20;99.90;;;;;;5029874;28;20413;-74
2023/03/23 00:39:28;;;;;;;12.43;6.97;;;7.20;99.90;;;;;;5031461;28;20493;-76
2023/03/23 00:42:00;;;;;;;19.13;7.70;;;7.20;99.90;;;;;;5031443;28;20550;-76
2023/03/23 00:44:28;;;;;;;16.13;9.20;;;7.10;99.90;;;;;;5031586;28;20492;-75
2023/03/23 00:46:56;;;;;;;16.85;9.65;;;7.10;99.90;;;;;;5031494;28;20017;-75
2023/03/23 00:49:25;;;;;;;22.85;12.00;;;7.10;99.90;;;;;;5031198;28;20074;-76
2023/03/23 00:51:57;;;;;;;22.73;10.02;;;7.10;99.90;;;;;;5030106;28;20025;-75
2023/03/23 00:54:24;;;;;;;17.48;10.40;;;7.10;99.90;;;;;;5029904;28;20076;-75
2023/03/23 00:56:50;;;;;;;27.90;11.07;;;7.00;99.90;;;;;;5030098;28;20036;-76
2023/03/23 00:59:16;;;;;;;;;;;7.00;99.90;;;;;;5030146;28;20029;-76
2023/03/23 01:01:42;;;;;;;30.08;15.63;;;6.90;99.90;;;;;;5031271;28;20004;-76
2023/03/23 01:04:08;;;;;;;;;;;6.90;99.90;;;;;;5031597;28;20151;-75
2023/03/23 01:06:38;;;;;;;12.20;6.20;;;6.90;99.90;;;;;;5030895;28;19916;-76
2023/03/23 01:09:09;;;;;;;9.65;5.55;;;6.90;99.90;;;;;;5029716;28;20029;-75
2023/03/23 01:11:35;;;;;;;11.07;6.07;;;6.90;99.90;;;;;;5029877;28;20043;-76
2023/03/23 01:14:01;;;;;;;;;;;6.90;99.90;;;;;;5031218;28;20033;-76
2023/03/23 01:16:26;;;;;;;14.20;6.47;;;6.90;99.90;;;;;;5030886;28;19993;-76
2023/03/23 01:18:52;;;;;;;16.98;9.63;;;6.90;99.90;;;;;;5046546;28;20040;-76
2023/03/23 01:21:19;;;;;;;;;;;6.80;99.90;;;;;;5031132;28;20083;-76
2023/03/23 01:23:45;;;;;;;11.20;6.75;;;6.80;99.90;;;;;;5029953;28;19909;-75
2023/03/23 01:26:16;;;;;;;11.70;6.70;;;6.80;99.90;;;;;;5030970;28;20413;-76
2023/03/23 01:28:43;;;;;;;10.35;5.00;;;6.80;99.90;;;;;;5029125;28;20032;-75
2023/03/23 01:31:15;;;;;;;12.10;5.97;;;6.80;99.90;;;;;;5029297;28;20049;-76
2023/03/23 01:33:41;;;;;;;11.35;5.78;;;6.70;99.90;;;;;;5029235;28;20029;-76
2023/03/23 01:36:13;;;;;;;10.98;5.63;;;6.80;99.90;;;;;;5029092;28;20670;-76
2023/03/23 01:38:39;;;;;;;19.77;7.93;;;6.70;99.90;;;;;;5029156;28;20033;-76
2023/03/23 01:41:05;;;;;;;;;;;6.70;99.90;;;;;;5029655;28;20044;-75
2023/03/23 01:43:31;;;;;;;19.27;7.72;;;6.70;99.90;;;;;;5029897;28;19916;-75
2023/03/23 01:45:57;;;;;;;18.48;7.07;;;6.70;99.90;;;;;;5030233;28;20028;-77
2023/03/23 01:48:23;;;;;;;;;;;6.80;99.90;;;;;;5028388;28;20033;-75
2023/03/23 01:51:08;;;;;;;20.02;8.13;;;6.80;99.90;;;;;;5028964;28;19905;-75
2023/03/23 01:53:52;;;;;;;17.33;8.10;;;6.80;99.90;;;;;;5028927;28;20036;-76
2023/03/23 01:56:24;;;;;;;18.90;7.80;;;6.80;99.90;;;;;;5030364;28;20025;-76
2023/03/23 01:58:52;;;;;;;22.40;9.05;;;6.80;99.90;;;;;;5030032;28;20087;-75
2023/03/23 02:01:21;;;;;;;24.83;8.73;;;6.70;99.90;;;;;;5028496;28;20061;-75
2023/03/23 02:03:48;;;;;;;31.75;11.10;;;6.70;99.90;;;;;;5045344;28;20494;-73
2023/03/23 02:06:14;;;;;;;37.92;12.98;;;6.70;99.90;;;;;;5029982;28;20022;-76
2023/03/23 02:08:41;;;;;;;;;;;6.70;99.90;;;;;;5029207;28;20060;-77
2023/03/23 02:11:21;;;;;;;27.48;10.60;;;6.60;99.90;;;;;;5029855;28;19905;-76
2023/03/23 02:13:47;;;;;;;27.60;9.88;;;6.60;99.90;;;;;;5030102;28;20132;-76
2023/03/23 02:16:33;;;;;;;34.38;12.77;;;6.50;99.90;;;;;;5028478;28;20130;-76
2023/03/23 02:19:27;;;;;;;50.85;18.52;;;6.40;99.90;;;;;;5029821;28;20029;-77
2023/03/23 02:22:07;;;;;;;41.47;15.15;;;6.40;99.90;;;;;;5029678;28;20033;-75
2023/03/23 02:24:51;;;;;;;31.52;13.07;;;6.40;99.90;;;;;;5028750;28;20494;-76
2023/03/23 02:27:54;;;;;;;27.50;10.90;;;6.30;99.90;;;;;;5029486;28;20064;-77
2023/03/23 02:30:30;;;;;;;31.40;12.65;;;6.30;99.90;;;;;;5029313;28;20046;-76
2023/03/23 02:33:08;;;;;;;27.85;12.48;;;6.30;99.90;;;;;;5029677;28;20034;-76
2023/03/23 02:35:45;;;;;;;24.95;10.88;;;6.30;99.90;;;;;;5027987;28;20150;-77
2023/03/23 02:38:21;;;;;;;22.40;8.60;;;6.40;99.90;;;;;;5029276;28;20529;-75
2023/03/23 02:40:49;;;;;;;14.27;6.85;;;6.40;99.90;;;;;;5029082;28;20033;-76
2023/03/23 02:43:20;;;;;;;13.05;6.43;;;6.40;99.90;;;;;;5028857;28;20033;-76
2023/03/23 02:45:46;;;;;;;12.00;5.82;;;6.40;99.90;;;;;;5026104;28;20022;-76
2023/03/23 02:48:16;;;;;;;25.63;8.07;;;6.40;99.90;;;;;;5025523;28;20033;-76
2023/03/23 02:50:46;;;;;;;21.65;7.07;;;6.50;99.90;;;;;;5025847;28;20025;-76
2023/03/23 02:53:15;;;;;;;14.82;6.47;;;6.50;99.90;;;;;;5026650;28;20107;-76
2023/03/23 02:55:43;;;;;;;14.80;5.55;;;6.50;99.90;;;;;;5029051;28;20514;-77
2023/03/23 02:58:12;;;;;;;9.80;4.28;;;6.60;99.90;;;;;;5028691;28;20114;-75
2023/03/23 03:00:38;;;;;;;7.72;4.15;;;6.60;99.90;;;;;;5027431;28;20080;-76
2023/03/23 03:03:11;;;;;;;14.07;4.35;;;6.60;99.90;;;;;;5027010;28;20038;-76
2023/03/23 03:05:49;;;;;;;16.23;7.10;;;6.60;99.90;;;;;;5025626;28;20034;-75
2023/03/23 03:08:33;;;;;;;16.25;7.25;;;6.50;99.90;;;;;;5028714;28;20025;-75
2023/03/23 03:11:01;;;;;;;18.13;8.07;;;6.50;99.90;;;;;;5027459;28;20029;-76
2023/03/23 03:13:50;;;;;;;19.42;7.40;;;6.50;99.90;;;;;;5028611;28;20108;-76
2023/03/23 03:17:02;;;;;;;14.95;5.97;;;6.40;99.90;;;;;;5028758;28;20068;-76
2023/03/23 03:19:39;;;;;;;10.73;5.45;;;6.40;99.90;;;;;;5029167;28;20056;-75
2023/03/23 03:22:07;;;;;;;12.15;5.88;;;6.40;99.90;;;;;;5029575;28;20045;-75
2023/03/23 03:24:37;;;;;;;14.25;6.10;;;6.30;99.90;;;;;;5028645;28;20021;-75
2023/03/23 03:27:06;;;;;;;14.27;6.05;;;6.30;99.90;;;;;;5027319;28;20037;-75
2023/03/23 03:29:37;;;;;;;23.27;8.32;;;6.40;99.90;;;;;;5028673;28;20021;-74
2023/03/23 03:32:05;;;;;;;23.17;7.38;;;6.50;99.90;;;;;;5027087;28;20087;-75
2023/03/23 03:34:33;;;;;;;12.90;6.15;;;6.50;99.90;;;;;;5027326;28;20065;-74
2023/03/23 03:36:59;;;;;;;10.48;4.35;;;6.60;99.90;;;;;;5028493;28;20029;-75
2023/03/23 03:39:25;;;;;;;11.82;4.60;;;6.60;99.90;;;;;;5027084;28;20075;-75
2023/03/23 03:41:52;;;;;;;9.82;3.70;;;6.70;99.90;;;;;;5028611;28;20348;-75
2023/03/23 03:44:17;;;;;;;;;;;6.70;99.90;;;;;;5028846;28;20040;-75
2023/03/23 03:46:43;;;;;;;7.63;3.13;;;6.70;99.90;;;;;;5028428;28;19928;-75
2023/03/23 03:49:12;;;;;;;;;;;6.70;99.90;;;;;;5028735;28;20397;-75
2023/03/23 03:51:39;;;;;;;10.32;3.92;;;6.60;99.90;;;;;;5028842;28;19959;-74
2023/03/23 03:54:05;;;;;;;10.55;4.53;;;6.60;99.90;;;;;;5028499;28;20076;-75
2023/03/23 03:56:35;;;;;;;;;;;6.60;99.90;;;;;;5028926;28;20065;-75
2023/03/23 03:59:02;;;;;;;14.35;5.43;;;6.60;99.90;;;;;;5027214;28;19940;-75
2023/03/23 04:01:28;;;;;;;15.25;6.32;;;6.50;99.90;;;;;;5028174;28;20068;-78
2023/03/23 04:03:54;;;;;;;13.27;5.85;;;6.50;99.90;;;;;;5028323;28;20103;-77
2023/03/23 04:06:21;;;;;;;17.80;6.20;;;6.40;99.90;;;;;;5028139;28;20021;-77
2023/03/23 04:08:46;;;;;;;19.60;8.75;;;6.40;99.90;;;;;;5028600;28;20109;-76
2023/03/23 04:11:13;;;;;;;;;;;6.40;99.90;;;;;;5029148;28;20132;-77
2023/03/23 04:13:40;;;;;;;15.02;6.40;;;6.30;99.90;;;;;;5032088;28;19951;-77
2023/03/23 04:16:08;;;;;;;21.77;6.10;;;6.30;99.90;;;;;;5031753;28;20061;-76
2023/03/23 04:18:35;;;;;;;16.98;6.47;;;6.30;99.90;;;;;;5030676;28;20025;-76
2023/03/23 04:21:02;;;;;;;20.27;8.15;;;6.20;99.90;;;;;;5032037;28;20036;-75
2023/03/23 04:23:31;;;;;;;24.02;7.90;;;6.20;99.90;;;;;;5030409;28;20025;-76
2023/03/23 04:25:57;;;;;;;32.17;9.35;;;6.20;99.90;;;;;;5030408;28;20041;-77
2023/03/23 04:28:25;;;;;;;20.58;6.93;;;6.20;99.90;;;;;;5030366;28;20292;-76
2023/03/23 04:30:55;;;;;;;18.25;5.82;;;6.20;99.90;;;;;;5031471;28;20107;-76
2023/03/23 04:33:24;;;;;;;15.32;7.45;;;6.30;99.90;;;;;;5029936;28;20503;-75
2023/03/23 04:35:51;;;;;;;19.27;9.30;;;6.40;99.90;;;;;;5030322;28;20111;-75
2023/03/23 04:38:20;;;;;;;15.93;8.75;;;6.40;99.90;;;;;;5031608;28;20022;-75
2023/03/23 04:40:47;;;;;;;20.13;9.32;;;6.50;99.90;;;;;;5031544;28;20067;-77
2023/03/23 04:43:14;;;;;;;17.80;8.68;;;6.50;99.90;;;;;;5029842;28;20398;-77
2023/03/23 04:45:41;;;;;;;21.10;8.93;;;6.50;99.90;;;;;;5030238;28;20116;-76
2023/03/23 04:48:08;;;;;;;14.00;6.80;;;6.50;99.90;;;;;;5031444;28;20018;-76
2023/03/23 04:50:34;;;;;;;10.75;6.32;;;6.50;99.90;;;;;;5031537;28;20132;-76
2023/03/23 04:53:04;;;;;;;13.25;5.13;;;6.60;99.90;;;;;;5029862;28;20033;-76
2023/03/23 04:55:36;;;;;;;9.45;4.93;;;6.60;99.90;;;;;;5031335;28;20367;-76
2023/03/23 04:58:06;;;;;;;26.38;11.38;;;6.60;99.90;;;;;;5029792;28;20028;-76
2023/03/23 05:00:33;;;;;;;31.23;13.45;;;6.60;99.90;;;;;;5029603;28;20120;-75
2023/03/23 05:03:00;;;;;;;25.60;10.23;;;6.60;99.90;;;;;;5031028;28;20025;-76
2023/03/23 05:05:27;;;;;;;22.77;9.93;;;6.70;99.90;;;;;;5029619;28;20029;-77
2023/03/23 05:07:53;;;;;;;39.40;14.80;;;6.70;99.90;;;;;;5031044;28;20025;-74
2023/03/23 05:10:19;;;;;;;;;;;6.70;99.90;;;;;;5031218;28;20505;-76
2023/03/23 05:12:45;;;;;;;41.95;18.23;;;6.70;99.90;;;;;;5030877;28;19905;-75
2023/03/23 05:15:13;;;;;;;40.75;19.55;;;6.80;99.90;;;;;;5029392;28;20037;-74
2023/03/23 05:17:40;;;;;;;40.00;19.40;;;6.80;99.90;;;;;;5028841;28;20057;-76
2023/03/23 05:20:09;;;;;;;29.52;14.45;;;6.90;99.90;;;;;;5028637;28;20064;-75
2023/03/23 05:22:36;;;;;;;27.05;12.88;;;7.00;99.90;;;;;;5028712;28;20027;-75
2023/03/23 05:25:02;;;;;;;19.17;8.65;;;7.10;99.90;;;;;;5030681;28;20025;-76
2023/03/23 05:27:30;;;;;;;24.45;9.30;;;7.30;99.90;;;;;;5030427;28;20026;-76
2023/03/23 05:29:58;;;;;;;23.65;9.63;;;7.40;99.90;;;;;;5029065;28;20030;-77
2023/03/23 05:32:31;;;;;;;33.30;13.13;;;7.50;99.90;;;;;;5029299;28;20037;-77
2023/03/23 05:35:00;;;;;;;30.25;15.20;;;7.60;99.90;;;;;;5030404;28;20048;-77
2023/03/23 05:37:36;;;;;;;19.98;10.95;;;7.80;99.90;;;;;;5028844;28;20029;-77
2023/03/23 05:40:05;;;;;;;20.23;10.95;;;7.90;99.90;;;;;;5030372;28;20101;-77
2023/03/23 05:42:32;;;;;;;19.52;10.20;;;8.00;99.90;;;;;;5030280;28;20051;-76
2023/03/23 05:44:58;;;;;;;23.55;12.60;;;8.20;99.90;;;;;;5028925;28;20033;-76
2023/03/23 05:47:25;;;;;;;20.75;11.60;;;8.50;99.90;;;;;;5030288;28;20021;-76
2023/03/23 05:49:51;;;;;;;24.52;11.55;;;8.80;99.90;;;;;;5028728;28;20026;-76
2023/03/23 05:52:18;;;;;;;26.83;11.45;;;9.20;99.90;;;;;;5028713;28;20049;-77
2023/03/23 05:54:44;;;;;;;24.45;11.73;;;9.60;99.90;;;;;;5029934;28;20111;-77
2023/03/23 05:57:10;;;;;;;;;;;9.90;99.90;;;;;;5030489;28;20029;-77
2023/03/23 05:59:37;;;;;;;24.38;9.48;;;10.20;99.90;;;;;;5028502;28;19913;-77
2023/03/23 06:02:03;;;;;;;20.40;9.38;;;10.60;99.90;;;;;;5028592;28;20083;-77
2023/03/23 06:04:29;;;;;;;20.55;9.27;;;10.90;99.90;;;;;;5028637;28;20034;-75
2023/03/23 06:06:54;;;;;;;;;;;11.00;99.90;;;;;;5029072;28;20031;-77
2023/03/23 06:09:20;;;;;;;15.68;8.32;;;11.10;99.90;;;;;;5029442;28;19912;-76
2023/03/23 06:11:47;;;;;;;26.23;14.02;;;11.40;99.90;;;;;;5029642;28;20549;-75
2023/03/23 06:14:13;;;;;;;26.83;14.30;;;11.80;99.90;;;;;;5029792;28;20136;-77
2023/03/23 06:16:38;;;;;;;;;;;12.10;99.90;;;;;;5029978;28;20049;-76
2023/03/23 06:19:04;;;;;;;22.25;13.63;;;12.50;99.90;;;;;;5029879;28;20328;-77
2023/03/23 06:21:31;;;;;;;;;;;13.10;99.90;;;;;;5029941;28;20100;-76
2023/03/23 06:23:59;;;;;;;25.08;13.43;;;13.50;94.90;;;;;;5029567;28;20565;-76
2023/03/23 06:26:30;;;;;;;25.90;11.52;;;13.90;95.60;;;;;;5029483;28;20453;-77
2023/03/23 06:28:57;;;;;;;24.83;14.68;;;14.50;92.20;;;;;;5027791;28;20387;-77
2023/03/23 06:31:24;;;;;;;15.85;8.32;;;15.10;90.90;;;;;;5027920;28;20091;-76
2023/03/23 06:33:50;;;;;;;16.73;9.25;;;15.70;83.10;;;;;;5027387;28;20402;-76
2023/03/23 06:36:16;;;;;;;19.00;10.63;;;16.20;77.40;;;;;;5027733;28;20026;-77
2023/03/23 06:38:42;;;;;;;25.08;13.48;;;16.90;72.20;;;;;;5028116;28;20029;-76
2023/03/23 06:41:08;;;;;;;17.80;10.55;;;17.40;71.80;;;;;;5028676;28;20085;-76
2023/03/23 06:43:37;;;;;;;10.02;5.00;;;18.00;68.50;;;;;;5029085;28;20025;-76
2023/03/23 06:46:03;;;;;;;13.57;7.63;;;18.60;62.90;;;;;;5027688;28;20030;-76
2023/03/23 06:48:29;;;;;;;8.95;4.25;;;19.10;61.90;;;;;;5044229;28;20021;-77
2023/03/23 06:50:55;;;;;;;6.05;3.47;;;19.60;59.00;;;;;;5029016;28;20080;-78
2023/03/23 06:53:20;;;;;;;9.65;3.17;;;20.10;54.70;;;;;;5029116;28;20478;-78
2023/03/23 06:55:46;;;;;;;5.32;2.80;;;20.70;52.70;;;;;;5029148;28;20106;-76
2023/03/23 06:58:12;;;;;;;6.68;3.22;;;21.30;49.80;;;;;;5029140;28;20017;-76
2023/03/23 07:00:40;;;;;;;6.40;3.08;;;21.60;49.20;;;;;;5028938;28;20132;-76
2023/03/23 07:03:06;;;;;;;6.53;2.92;;;21.60;49.50;;;;;;5027589;28;20025;-77
2023/03/23 07:05:34;;;;;;;4.43;2.70;;;21.80;47.90;;;;;;5028860;28;20116;-76
2023/03/23 07:08:02;;;;;;;4.15;2.85;;;22.60;46.50;;;;;;5027618;28;20390;-76
2023/03/23 07:10:28;;;;;;;5.22;3.25;;;23.30;45.40;;;;;;5028798;28;20105;-77
2023/03/23 07:12:54;;;;;;;4.88;3.55;;;23.70;44.90;;;;;;5028770;28;20033;-76
2023/03/23 07:15:19;;;;;;;6.68;2.95;;;24.10;43.10;;;;;;5028491;28;20037;-77
2023/03/23 07:17:46;;;;;;;5.78;3.38;;;24.40;42.50;;;;;;5028845;28;20100;-76
2023/03/23 07:20:13;;;;;;;4.13;2.60;;;24.90;41.20;;;;;;5028584;28;20030;-77
2023/03/23 07:22:38;;;;;;;5.07;3.70;;;25.00;41.30;;;;;;5027422;28;20022;-77
2023/03/23 07:25:05;;;;;;;3.67;2.70;;;24.70;40.60;;;;;;5028748;28;20037;-77
2023/03/23 07:27:31;;;;;;;4.68;2.90;;;24.60;40.50;;;;;;5028543;28;20071;-76
2023/03/23 07:29:57;;;;;;;17.05;3.88;;;24.20;41.10;;;;;;5028503;28;20389;-76
2023/03/23 07:32:24;;;;;;;8.15;2.92;;;23.60;41.50;;;;;;5028698;28;20136;-77
2023/03/23 07:34:50;;;;;;;11.02;2.97;;;23.00;42.40;;;;;;5028499;28;20080;-76
2023/03/23 07:37:16;;;;;;;5.75;3.55;;;22.70;43.40;;;;;;5028405;28;20402;-77
2023/03/23 07:39:42;;;;;;;8.63;3.80;;;22.40;43.10;;;;;;5028556;28;20033;-76
2023/03/23 07:42:08;;;;;;;6.70;4.15;;;22.00;43.80;;;;;;5028422;28;20056;-77
2023/03/23 07:44:34;;;;;;;9.45;3.92;;;21.70;44.60;;;;;;5028435;28;20034;-76
2023/03/23 07:47:00;;;;;;;11.20;4.07;;;21.70;44.60;;;;;;5031418;28;20490;-77
2023/03/23 07:49:26;;;;;;;5.18;3.60;;;21.80;45.00;;;;;;5032088;28;20052;-78
2023/03/23 07:51:52;;;;;;;7.55;3.92;;;21.80;44.70;;;;;;5032501;28;20025;-78
2023/03/23 07:54:18;;;;;;;4.97;3.38;;;22.00;44.60;;;;;;5030910;28;20029;-77
2023/03/23 07:56:45;;;;;;;5.07;3.50;;;22.20;44.40;;;;;;5032102;28;20064;-77
2023/03/23 07:59:12;;;;;;;6.75;4.10;;;22.30;43.90;;;;;;5030869;28;20034;-77
2023/03/23 08:01:39;;;;;;;7.38;4.50;;;22.10;44.00;;;;;;5032174;28;20025;-76
2023/03/23 08:04:05;;;;;;;7.38;4.05;;;21.90;44.20;;;;;;5030903;28;20406;-75
2023/03/23 08:06:35;;;;;;;6.40;3.50;;;21.80;45.10;;;;;;5032096;28;20025;-77
2023/03/23 08:09:02;;;;;;;4.68;3.50;;;21.70;45.00;;;;;;5030796;28;20026;-77
2023/03/23 08:11:28;;;;;;;7.05;3.95;;;21.50;45.40;;;;;;5031864;28;20025;-77
2023/03/23 08:13:54;;;;;;;5.88;3.60;;;21.40;45.70;;;;;;5030714;28;20399;-77
2023/03/23 08:16:19;;;;;;;5.45;3.50;;;21.40;46.30;;;;;;5031051;28;20512;-77
2023/03/23 08:18:46;;;;;;;6.22;4.03;;;21.50;46.10;;;;;;5031948;28;20106;-77
2023/03/23 08:21:12;;;;;;;12.35;4.60;;;21.70;45.70;;;;;;5030627;28;20112;-76
2023/03/23 08:23:39;;;;;;;10.43;4.72;;;22.00;45.50;;;;;;5031911;28;20025;-76
2023/03/23 08:26:08;;;;;;;19.67;4.35;;;22.50;44.70;;;;;;5030389;28;20382;-77
2023/03/23 08:28:35;;;;;;;7.60;3.72;;;22.60;44.00;;;;;;5031871;28;20092;-78
2023/03/23 08:31:10;;;;;;;8.57;4.15;;;22.70;43.80;;;;;;5031686;28;20120;-76
2023/03/23 08:33:36;;;;;;;11.55;4.40;;;23.00;42.90;;;;;;5030321;28;20025;-76
2023/03/23 08:36:03;;;;;;;6.63;4.55;;;23.10;42.90;;;;;;5030224;28;20044;-77
2023/03/23 08:38:30;;;;;;;5.00;3.60;;;23.60;42.90;;;;;;5031351;28;20022;-77
2023/03/23 08:41:01;;;;;;;6.40;4.57;;;23.90;42.30;;;;;;5030190;28;20124;-77
2023/03/23 08:43:27;;;;;;;5.47;4.07;;;24.10;42.00;;;;;;5030347;28;20113;-77
2023/03/23 08:45:53;;;;;;;6.07;3.97;;;24.20;41.00;;;;;;5031578;28;20048;-76
2023/03/23 08:48:19;;;;;;;6.70;4.00;;;24.20;41.40;;;;;;5030343;28;20119;-77
2023/03/23 08:50:45;;;;;;;9.02;4.32;;;24.40;41.60;;;;;;5031222;28;20030;-77
2023/03/23 08:53:11;;;;;;;7.72;3.33;;;24.50;41.90;;;;;;5030998;28;20036;-76
2023/03/23 08:55:38;;;;;;;10.85;3.88;;;24.80;40.70;;;;;;5031004;28;20060;-77
2023/03/23 08:58:04;;;;;;;7.70;4.30;;;24.90;40.80;;;;;;5031144;28;20022;-77
2023/03/23 09:00:31;;;;;;;6.10;4.63;;;25.10;40.40;;;;;;5031256;28;20040;-77
2023/03/23 09:02:56;;;;;;;7.80;4.63;;;25.20;39.90;;;;;;5030917;28;20032;-78
2023/03/23 09:05:25;;;;;;;6.47;4.40;;;25.40;39.70;;;;;;5030808;28;20026;-77
2023/03/23 09:07:54;;;;;;;6.45;4.40;;;25.30;39.30;;;;;;5031093;28;20087;-77
2023/03/23 09:10:20;;;;;;;4.68;3.53;;;25.00;39.60;;;;;;5031217;28;20079;-77
2023/03/23 09:12:47;;;;;;;7.97;3.53;;;25.10;40.00;;;;;;5030973;28;20026;-77
2023/03/23 09:15:15;;;;;;;6.00;3.92;;;25.10;40.30;;;;;;5029425;28;20034;-77
2023/03/23 09:17:44;;;;;;;7.22;4.05;;;25.60;39.60;;;;;;5030850;28;20029;-78
2023/03/23 09:20:12;;;;;;;5.85;4.22;;;25.70;39.00;;;;;;5029829;28;20021;-78
2023/03/23 09:22:40;;;;;;;5.35;3.80;;;26.00;38.80;;;;;;5029850;28;20029;-78
2023/03/23 09:25:08;;;;;;;10.05;4.22;;;26.10;38.30;;;;;;5030675;28;20026;-77
2023/03/23 09:27:36;;;;;;;6.70;4.32;;;26.10;38.00;;;;;;5029264;28;20113;-76
2023/03/23 09:30:05;;;;;;;7.60;4.60;;;26.30;38.60;;;;;;5029156;28;20033;-77
2023/03/23 09:32:36;;;;;;;6.80;3.95;;;26.10;38.10;;;;;;5030632;28;20037;-77
2023/03/23 09:35:03;;;;;;;9.30;3.80;;;26.10;37.70;;;;;;5030671;28;20031;-76
2023/03/23 09:37:29;;;;;;;12.77;4.68;;;26.30;37.90;;;;;;5030875;28;20059;-76
2023/03/23 09:39:55;;;;;;;7.93;4.43;;;26.80;37.40;;;;;;5029320;28;20057;-76
2023/03/23 09:42:29;;;;;;;5.97;3.55;;;26.70;36.90;;;;;;5030559;28;20438;-76
2023/03/23 09:45:24;;;;;;;6.18;3.88;;;26.60;37.60;;;;;;5030220;28;20525;-77
2023/03/23 09:48:06;;;;;;;9.85;4.38;;;26.70;37.60;;;;;;5029195;28;20033;-76
2023/03/23 09:50:34;;;;;;;7.13;4.20;;;26.40;37.10;;;;;;5028984;28;20494;-77
2023/03/23 09:53:23;;;;;;;8.77;3.45;;;26.20;36.90;;;;;;5028612;28;20026;-76
2023/03/23 09:55:50;;;;;;;4.78;3.47;;;26.00;37.10;;;;;;5030032;28;20045;-76
2023/03/23 09:58:28;;;;;;;8.68;5.05;;;25.60;37.60;;;;;;5030233;28;20512;-77
2023/03/23 10:01:21;;;;;;;7.28;4.85;;;25.70;38.20;;;;;;5030043;28;20036;-77
2023/03/23 10:03:47;;;;;;;6.35;4.38;;;25.60;38.60;;;;;;5032045;28;20058;-77
2023/03/23 10:06:19;;;;;;;6.70;4.40;;;25.70;38.70;;;;;;5028479;28;20026;-76
2023/03/23 10:08:54;;;;;;;4.15;3.13;;;25.90;38.10;;;;;;5027881;28;20025;-77
2023/03/23 10:11:35;;;;;;;8.13;4.80;;;26.00;37.50;;;;;;5029688;28;20033;-77
2023/03/23 10:14:09;;;;;;;4.93;3.85;;;26.00;37.50;;;;;;5029585;28;20217;-76
2023/03/23 10:16:41;;;;;;;8.55;4.20;;;26.20;37.70;;;;;;5029565;28;20128;-76
2023/03/23 10:19:51;;;;;;;5.60;4.07;;;26.20;37.50;;;;;;5029670;28;20453;-77
2023/03/23 10:22:27;;;;;;;6.93;3.85;;;26.60;37.00;;;;;;5030392;28;20033;-77
2023/03/23 10:25:16;;;;;;;;;;;26.50;37.20;;;;;;5028781;28;20136;-76
2023/03/23 10:27:50;;;;;;;8.02;4.55;;;26.50;37.10;;;;;;5031769;28;20043;-76
2023/03/23 10:30:22;;;;;;;9.48;4.72;;;26.00;37.50;;;;;;5028070;28;20045;-77
2023/03/23 10:33:20;;;;;;;9.43;3.88;;;25.50;37.80;;;;;;5029430;28;20032;-76
2023/03/23 10:36:00;;;;;;;7.60;3.75;;;25.00;38.50;;;;;;5028018;28;20056;-76
2023/03/23 10:38:34;;;;;;;6.00;4.60;;;24.50;39.10;;;;;;5029366;28;20025;-76
2023/03/23 10:41:05;;;;;;;6.75;4.88;;;24.10;39.70;;;;;;5029382;28;20036;-76
2023/03/23 10:43:33;;;;;;;6.32;4.25;;;24.00;40.30;;;;;;5027917;28;20144;-75
2023/03/23 10:46:11;;;;;;;9.77;4.25;;;24.00;40.90;;;;;;5029142;28;20033;-76
2023/03/23 10:48:38;;;;;;;8.48;4.32;;;23.90;41.20;;;;;;5027878;28;20025;-76
2023/03/23 10:51:10;;;;;;;10.23;5.20;;;23.70;41.00;;;;;;5029349;28;20084;-76
2023/03/23 10:53:50;;;;;;;7.85;4.70;;;23.60;40.80;;;;;;5027807;28;20460;-77
2023/03/23 10:56:28;;;;;;;8.98;4.63;;;23.40;41.00;;;;;;5027693;28;20037;-76
2023/03/23 10:58:55;;;;;;;12.98;5.18;;;23.30;41.40;;;;;;5029003;28;20025;-76
2023/03/23 11:01:31;;;;;;;6.82;4.43;;;23.00;41.80;;;;;;5027544;28;20405;-76
2023/03/23 11:03:59;;;;;;;7.47;5.05;;;22.80;41.60;;;;;;5029112;28;20026;-75
2023/03/23 11:06:29;;;;;;;7.20;4.70;;;22.60;42.90;;;;;;5027648;28;20083;-76
2023/03/23 11:08:59;;;;;;;7.10;4.65;;;22.60;42.80;;;;;;5029178;28;20021;-76
2023/03/23 11:11:30;;;;;;;6.25;4.32;;;22.20;42.70;;;;;;5028743;28;20033;-76
2023/03/23 11:14:19;;;;;;;10.88;4.57;;;22.20;43.90;;;;;;5027453;28;20033;-76
2023/03/23 11:17:02;;;;;;;5.57;3.95;;;22.10;44.00;;;;;;5028804;28;20108;-76
2023/03/23 11:19:31;;;;;;;6.13;3.90;;;22.00;44.50;;;;;;5028755;28;20037;-77
2023/03/23 11:22:19;;;;;;;7.28;4.65;;;22.00;44.70;;;;;;5028742;28;20104;-76
2023/03/23 11:24:47;;;;;;;6.07;4.05;;;21.90;44.60;;;;;;5027283;28;20028;-76
2023/03/23 11:27:15;;;;;;;6.80;4.40;;;21.90;45.10;;;;;;5028531;28;20021;-76
2023/03/23 11:29:56;;;;;;;10.25;4.65;;;21.80;45.80;;;;;;5028843;28;20117;-75
2023/03/23 11:32:27;;;;;;;6.22;4.05;;;21.70;45.90;;;;;;5027492;28;20053;-76
2023/03/23 11:35:05;;;;;;;10.93;4.63;;;21.70;45.40;;;;;;5028359;28;20041;-76
2023/03/23 11:37:36;;;;;;;6.43;4.10;;;21.70;46.20;;;;;;5028376;28;20032;-76
2023/03/23 11:40:11;;;;;;;7.38;4.07;;;21.60;45.90;;;;;;5027293;28;20052;-75
2023/03/23 11:42:44;;;;;;;9.00;4.50;;;21.50;45.30;;;;;;5028606;28;20481;-76
2023/03/23 11:45:16;;;;;;;8.52;4.78;;;21.40;46.10;;;;;;5028313;28;20030;-76
2023/03/23 11:48:08;;;;;;;9.60;4.38;;;21.10;45.40;;;;;;5027258;28;20140;-76
2023/03/23 11:50:45;;;;;;;6.50;4.03;;;21.10;46.90;;;;;;5030573;28;20065;-76
2023/03/23 11:53:44;;;;;;;6.28;3.78;;;21.00;46.50;;;;;;5027207;28;20030;-75
2023/03/23 11:56:16;;;;;;;6.43;3.97;;;20.80;46.20;;;;;;5028484;28;20049;-75
2023/03/23 11:58:42;;;;;;;8.30;3.63;;;20.80;47.20;;;;;;5028376;28;20517;-75
2023/03/23 12:01:47;;;;;;;5.85;3.83;;;20.70;47.20;;;;;;5027048;28;20030;-76
2023/03/23 12:04:37;;;;;;;11.93;3.78;;;20.70;47.00;;;;;;5031106;28;20496;-75
2023/03/23 12:07:57;;;;;;;6.93;3.17;;;20.60;46.50;;;;;;5027333;28;20040;-76
2023/03/23 12:10:23;;;;;;;12.00;3.88;;;20.40;46.30;;;;;;5028944;28;20060;-76
2023/03/23 12:12:54;;;;;;;5.88;2.90;;;20.30;46.80;;;;;;5029671;28;20041;-75
2023/03/23 12:16:01;;;;;;;5.50;3.03;;;20.30;47.20;;;;;;5028010;28;20069;-77
2023/03/23 12:18:41;;;;;;;5.07;2.95;;;20.50;47.70;;;;;;5026430;28;20095;-76
2023/03/23 12:21:54;;;;;;;7.75;3.38;;;20.60;48.10;;;;;;5027289;28;20034;-75
2023/03/23 12:24:37;;;;;;;5.75;2.90;;;20.70;47.90;;;;;;5026376;28;20034;-76
2023/03/23 12:27:19;;;;;;;4.38;2.30;;;20.70;47.40;;;;;;5026825;28;20107;-76
2023/03/23 12:30:09;;;;;;;4.22;2.13;;;20.80;46.60;;;;;;5026927;28;20520;-76
2023/03/23 12:32:42;;;;;;;5.18;1.88;;;20.80;45.80;;;;;;5029961;28;20056;-76
2023/03/23 12:35:22;;;;;;;12.02;2.72;;;20.80;45.30;;;;;;5030232;28;20036;-75
2023/03/23 12:37:56;;;;;;;3.58;1.38;;;20.70;45.90;;;;;;5031709;28;20018;-75
2023/03/23 12:40:52;;;;;;;5.72;1.58;;;20.80;45.50;;;;;;5031580;28;20025;-75
2023/03/23 12:43:24;;;;;;;3.28;1.40;;;20.90;45.20;;;;;;5031277;28;20026;-76
2023/03/23 12:46:11;;;;;;;2.10;1.10;;;20.90;45.30;;;;;;5031461;28;20032;-76
2023/03/23 12:48:53;;;;;;;2.70;1.30;;;20.90;45.20;;;;;;5031312;28;20434;-75
2023/03/23 12:51:31;;;;;;;3.00;1.15;;;20.90;44.10;;;;;;5029967;28;20028;-76
2023/03/23 12:54:12;;;;;;;3.67;1.30;;;20.90;44.80;;;;;;5029824;28;20037;-75
2023/03/23 12:57:31;;;;;;;2.67;1.20;;;21.00;44.90;;;;;;5030159;28;20079;-75
2023/03/23 13:00:29;;;;;;;4.10;1.60;;;21.00;44.30;;;;;;5031764;28;20025;-75
2023/03/23 13:03:03;;;;;;;3.33;1.30;;;21.00;44.00;;;;;;5048576;28;20500;-76
2023/03/23 13:05:40;;;;;;;1.85;0.80;;;21.00;44.10;;;;;;5035702;28;20041;-76
2023/03/23 13:08:16;;;;;;;7.57;1.38;;;20.90;44.50;;;;;;5030199;28;20090;-75
2023/03/23 13:10:46;;;;;;;;;;;20.90;44.30;;;;;;5031598;28;20026;-75
2023/03/23 13:13:19;;;;;;;3.15;1.13;;;21.00;44.50;;;;;;5031392;28;19972;-76